Time;durP1;ratioP1;P1;durP2;ratioP2;P2;SDS_P1;SDS_P2;PMS_P1;PMS_P2;Temp;Humidity;BMP_temperature;BMP_pressure;BME280_temperature;BME280_humidity;BME280_pressure;Samples;Min_cycle;Max_cycle;Signal;HPM_P1;HPM_P2
2021/12/23 00:01:26;;;;;;;21.60;9.83;;;-5.90;1.00;;;;;;4979676;28;20181;-89
2021/12/23 00:03:54;;;;;;;18.00;7.77;;;-5.80;1.00;;;;;;4979496;28;20194;-88
2021/12/23 00:06:20;;;;;;;12.50;7.20;;;-5.70;1.00;;;;;;4963717;28;20293;-89
2021/12/23 00:08:47;;;;;;;14.30;8.03;;;-5.70;1.00;;;;;;4979916;28;20649;-90
2021/12/23 00:11:14;;;;;;;16.93;8.97;;;-5.80;1.00;;;;;;4979187;28;20190;-89
2021/12/23 00:13:50;;;;;;;15.60;8.17;;;-5.70;1.00;;;;;;4979063;28;20751;-90
2021/12/23 00:16:19;;;;;;;16.27;9.40;;;-5.60;1.00;;;;;;4979225;28;20574;-90
2021/12/23 00:18:54;;;;;;;15.33;8.67;;;-5.50;1.00;;;;;;4979553;28;20289;-90
2021/12/23 00:24:13;;;;;;;16.97;9.70;;;-5.50;1.00;;;;;;4978970;28;20194;-91
2021/12/23 00:26:39;;;;;;;14.50;8.67;;;-5.40;1.00;;;;;;4979157;28;20530;-90
2021/12/23 00:29:06;;;;;;;14.00;8.53;;;-5.30;1.00;;;;;;4996809;28;20285;-90
2021/12/23 00:31:34;;;;;;;12.83;8.43;;;-5.30;1.00;;;;;;4979099;28;20206;-90
2021/12/23 00:34:01;;;;;;;19.03;8.47;;;-5.20;1.00;;;;;;4965355;28;20202;-90
2021/12/23 00:36:30;;;;;;;17.00;8.03;;;-5.20;1.00;;;;;;4982289;28;20217;-90
2021/12/23 00:39:01;;;;;;;13.37;8.20;;;-5.10;1.00;;;;;;4983094;28;20205;-90
2021/12/23 00:41:31;;;;;;;15.10;8.47;;;-5.10;1.00;;;;;;4966414;28;20214;-89
2021/12/23 00:43:59;;;;;;;13.17;7.77;;;-5.10;1.00;;;;;;4966125;28;20185;-90
2021/12/23 00:46:27;;;;;;;14.07;7.63;;;-5.10;1.00;;;;;;4982265;28;20394;-90
2021/12/23 00:48:55;;;;;;;10.93;6.90;;;-5.00;1.00;;;;;;4999787;28;20543;-88
2021/12/23 00:51:23;;;;;;;12.77;7.43;;;-5.00;1.00;;;;;;4946513;28;20196;-90
2021/12/23 00:53:53;;;;;;;15.17;7.47;;;-4.90;1.00;;;;;;4959648;28;20193;-91
2021/12/23 00:56:20;;;;;;;10.30;6.33;;;-4.80;1.00;;;;;;4966451;28;20208;-89
2021/12/23 00:58:47;;;;;;;10.13;6.53;;;-4.70;1.00;;;;;;4950479;28;20178;-92
2021/12/23 01:01:14;;;;;;;10.70;5.67;;;-4.70;1.00;;;;;;4965445;28;20600;-91
2021/12/23 01:03:41;;;;;;;8.70;5.20;;;-4.70;1.00;;;;;;4953794;28;20195;-92
2021/12/23 01:06:08;;;;;;;9.10;5.93;;;-4.60;1.00;;;;;;4946910;28;20213;-90
2021/12/23 01:08:35;;;;;;;6.80;4.40;;;-4.60;1.00;;;;;;4946752;28;20289;-91
2021/12/23 01:11:04;;;;;;;6.63;4.20;;;-4.70;1.00;;;;;;4947184;28;20254;-90
2021/12/23 01:13:31;;;;;;;7.00;4.20;;;-4.60;1.00;;;;;;4965895;28;20198;-91
2021/12/23 01:16:00;;;;;;;7.40;4.50;;;-4.50;1.00;;;;;;4965249;28;20920;-90
2021/12/23 01:18:37;;;;;;;7.30;4.60;;;-4.50;1.00;;;;;;4961838;28;20595;-89
2021/12/23 01:21:16;;;;;;;10.33;3.90;;;-4.30;1.00;;;;;;4961604;28;20197;-90
2021/12/23 01:23:57;;;;;;;7.77;4.90;;;-4.20;1.00;;;;;;4957009;28;20197;-91
2021/12/23 01:26:24;;;;;;;7.17;5.03;;;-4.00;1.00;;;;;;4965719;28;20207;-90
2021/12/23 01:28:56;;;;;;;7.77;4.57;;;-3.90;1.00;;;;;;4966059;28;20208;-91
2021/12/23 01:31:26;;;;;;;7.17;4.73;;;-3.90;99.90;;;;;;4981049;28;20216;-90
2021/12/23 01:33:53;;;;;;;9.43;4.83;;;-3.90;99.90;;;;;;4965025;28;20194;-91
2021/12/23 01:36:22;;;;;;;9.43;5.07;;;-3.90;99.90;;;;;;4976204;28;20225;-91
2021/12/23 01:38:51;;;;;;;6.47;4.40;;;-3.80;99.90;;;;;;4965610;28;20603;-92
2021/12/23 01:41:18;;;;;;;6.30;4.47;;;-3.70;99.90;;;;;;4965819;28;20221;-91
2021/12/23 01:43:45;;;;;;;7.27;4.27;;;-3.70;99.90;;;;;;4966909;28;20202;-92
2021/12/23 01:46:14;;;;;;;7.47;4.73;;;-3.60;99.90;;;;;;4965514;28;20660;-91
2021/12/23 01:48:43;;;;;;;6.27;4.23;;;-3.50;99.90;;;;;;4966827;28;20207;-91
2021/12/23 01:51:10;;;;;;;7.17;4.27;;;-3.50;99.90;;;;;;4981413;28;20228;-91
2021/12/23 01:53:37;;;;;;;4.70;3.17;;;-3.50;86.10;;;;;;4965033;28;20201;-90
2021/12/23 01:56:04;;;;;;;5.33;2.67;;;-3.40;60.00;;;;;;4964339;28;20214;-90
2021/12/23 01:58:37;;;;;;;2.73;1.90;;;-3.30;1.00;;;;;;4964948;28;20256;-91
2021/12/23 02:01:05;;;;;;;3.73;2.70;;;-3.20;1.00;;;;;;4963942;28;20204;-91
2021/12/23 02:03:32;;;;;;;3.90;2.70;;;-3.10;1.00;;;;;;4955677;28;20198;-90
2021/12/23 02:06:00;;;;;;;2.90;2.10;;;-3.00;1.00;;;;;;4945299;28;20209;-88
2021/12/23 02:08:36;;;;;;;3.57;2.20;;;-2.70;99.90;;;;;;4945805;28;20300;-90
2021/12/23 02:11:09;;;;;;;2.77;2.00;;;-2.50;99.90;;;;;;4960989;28;20202;-89
2021/12/23 02:13:37;;;;;;;2.70;1.90;;;-2.40;99.90;;;;;;4963611;28;20197;-91
2021/12/23 02:16:05;;;;;;;2.70;1.90;;;-2.20;1.00;;;;;;4963373;28;20272;-92
2021/12/23 02:18:32;;;;;;;2.37;1.77;;;-1.80;1.00;;;;;;4963705;28;20210;-91
2021/12/23 02:20:59;;;;;;;2.33;1.70;;;-1.70;1.00;;;;;;4963654;28;20320;-89
2021/12/23 02:23:27;;;;;;;2.23;1.77;;;-1.50;99.90;;;;;;4962659;28;20193;-89
2021/12/23 02:25:54;;;;;;;2.17;1.47;;;-1.30;99.90;;;;;;4963214;28;20221;-88
2021/12/23 02:28:22;;;;;;;4.20;1.77;;;-1.20;99.90;;;;;;4963622;28;20190;-88
2021/12/23 02:30:51;;;;;;;2.37;1.60;;;-1.20;99.90;;;;;;4980310;28;20194;-87
2021/12/23 02:33:25;;;;;;;2.70;1.60;;;-1.10;99.90;;;;;;4976967;28;20263;-88
2021/12/23 02:35:56;;;;;;;3.27;1.60;;;-1.00;99.90;;;;;;4959709;28;20293;-88
2021/12/23 02:38:24;;;;;;;4.20;1.97;;;-1.00;99.90;;;;;;4959619;28;20271;-88
2021/12/23 02:40:50;;;;;;;2.37;1.70;;;-0.90;99.90;;;;;;4976386;28;20190;-86
2021/12/23 02:43:27;;;;;;;2.70;1.70;;;-1.00;99.90;;;;;;4969255;28;20213;-87
2021/12/23 02:45:58;;;;;;;3.03;2.00;;;-1.10;99.90;;;;;;4979669;28;20194;-88
2021/12/23 02:48:34;;;;;;;1.60;1.40;;;-1.30;99.90;;;;;;4979638;28;20190;-88
2021/12/23 02:51:13;;;;;;;2.77;1.77;;;-1.40;99.90;;;;;;4963136;28;20220;-88
2021/12/23 02:53:41;;;;;;;1.93;1.33;;;-1.40;99.90;;;;;;4962951;28;20304;-88
2021/12/23 02:56:11;;;;;;;2.63;1.83;;;-1.40;99.90;;;;;;4962974;28;20218;-88
2021/12/23 02:58:38;;;;;;;1.87;1.53;;;-1.40;99.90;;;;;;4962536;28;20691;-89
2021/12/23 03:01:08;;;;;;;2.10;1.70;;;-1.30;99.90;;;;;;4962972;28;20210;-88
2021/12/23 03:03:35;;;;;;;3.20;2.00;;;-1.10;99.90;;;;;;4978565;28;20193;-89
2021/12/23 03:06:02;;;;;;;3.33;1.97;;;-1.00;99.90;;;;;;4962778;28;20201;-88
2021/12/23 03:08:38;;;;;;;2.80;1.93;;;-0.80;99.90;;;;;;4963258;28;20221;-88
2021/12/23 03:11:06;;;;;;;3.23;2.13;;;-0.70;99.90;;;;;;4978687;28;20265;-88
2021/12/23 03:13:34;;;;;;;2.47;1.80;;;-0.60;99.90;;;;;;4979698;28;20197;-88
2021/12/23 03:16:01;;;;;;;2.40;1.70;;;-0.60;99.90;;;;;;4963341;28;20245;-89
2021/12/23 03:18:28;;;;;;;3.37;1.97;;;-0.60;99.90;;;;;;4962690;28;20538;-88
2021/12/23 03:20:56;;;;;;;3.97;2.00;;;-0.60;99.90;;;;;;4963641;28;20186;-88
2021/12/23 03:23:23;;;;;;;4.10;2.03;;;-0.60;99.90;;;;;;4963215;28;20197;-89
2021/12/23 03:25:50;;;;;;;1.90;1.40;;;-0.60;99.90;;;;;;4978888;28;20209;-89
2021/12/23 03:28:18;;;;;;;3.17;1.87;;;-0.80;99.90;;;;;;4963277;28;20190;-88
2021/12/23 03:30:46;;;;;;;2.67;1.80;;;-0.90;99.90;;;;;;4962846;28;20594;-89
2021/12/23 03:33:13;;;;;;;2.10;1.67;;;-0.80;99.90;;;;;;4974505;28;20367;-89
2021/12/23 03:35:41;;;;;;;2.77;2.07;;;-0.90;99.90;;;;;;4963779;28;20241;-89
2021/12/23 03:38:08;;;;;;;3.83;1.90;;;-1.10;99.90;;;;;;4963159;28;20181;-89
2021/12/23 03:40:37;;;;;;;3.07;1.70;;;-1.30;1.00;;;;;;4981700;28;20198;-90
2021/12/23 03:43:04;;;;;;;2.20;1.77;;;-1.50;1.00;;;;;;4964928;28;20750;-89
2021/12/23 03:45:31;;;;;;;2.53;1.87;;;-1.60;1.00;;;;;;4980261;28;20198;-89
2021/12/23 03:47:58;;;;;;;3.20;1.90;;;-1.70;1.00;;;;;;4964169;28;20233;-88
2021/12/23 03:50:26;;;;;;;2.93;1.73;;;-1.80;1.00;;;;;;4980540;28;20194;-88
2021/12/23 03:52:53;;;;;;;2.63;1.60;;;-1.90;1.00;;;;;;4978182;28;20256;-88
2021/12/23 03:55:20;;;;;;;3.07;1.60;;;-1.80;1.00;;;;;;4962876;28;20221;-89
2021/12/23 03:57:47;;;;;;;2.20;1.87;;;-1.70;1.00;;;;;;4963225;28;20612;-88
2021/12/23 04:00:18;;;;;;;2.87;1.70;;;-1.80;1.00;;;;;;4978917;28;20194;-88
2021/12/23 04:02:48;;;;;;;3.37;1.70;;;-1.80;1.00;;;;;;4957878;28;20656;-88
2021/12/23 04:05:16;;;;;;;1.93;1.50;;;-1.80;1.00;;;;;;4944620;28;20209;-88
2021/12/23 04:07:44;;;;;;;2.47;1.77;;;-1.80;1.00;;;;;;4956535;28;20694;-87
2021/12/23 04:10:17;;;;;;;3.20;1.43;;;-1.80;1.00;;;;;;4949512;28;20194;-89
2021/12/23 04:12:45;;;;;;;1.67;1.30;;;-1.90;1.00;;;;;;4982839;28;20202;-90
2021/12/23 04:15:12;;;;;;;2.17;1.50;;;-1.60;1.00;;;;;;4966305;28;20205;-89
2021/12/23 04:17:40;;;;;;;2.63;1.50;;;-1.40;99.90;;;;;;4982776;28;20736;-89
2021/12/23 04:20:31;;;;;;;1.73;1.27;;;-1.40;99.90;;;;;;4965718;28;20194;-89
2021/12/23 04:22:58;;;;;;;3.93;1.70;;;-1.60;1.00;;;;;;4967523;28;20678;-89
2021/12/23 04:25:27;;;;;;;2.27;1.60;;;-1.80;1.00;;;;;;4967488;28;20704;-89
2021/12/23 04:27:57;;;;;;;1.93;1.60;;;-2.00;1.00;;;;;;4966223;28;20194;-89
2021/12/23 04:30:25;;;;;;;2.80;1.77;;;-2.00;1.00;;;;;;4984251;28;20224;-88
2021/12/23 04:32:53;;;;;;;2.60;1.53;;;-2.10;1.00;;;;;;4964338;28;20666;-89
2021/12/23 04:35:21;;;;;;;1.53;1.20;;;-2.20;1.00;;;;;;4962781;28;20277;-88
2021/12/23 04:37:48;;;;;;;1.60;1.40;;;-2.30;1.00;;;;;;4968209;28;20206;-88
2021/12/23 04:40:15;;;;;;;1.40;1.03;;;-2.30;1.00;;;;;;4966489;28;20229;-89
2021/12/23 04:42:42;;;;;;;2.40;1.50;;;-2.10;99.90;;;;;;4983105;28;20226;-89
2021/12/23 04:45:09;;;;;;;1.43;1.17;;;-1.90;99.90;;;;;;4963866;28;20220;-88
2021/12/23 04:47:37;;;;;;;2.53;1.40;;;-1.80;99.90;;;;;;4965938;28;20198;-88
2021/12/23 04:50:06;;;;;;;2.60;1.20;;;-1.80;99.90;;;;;;4967825;28;20209;-88
2021/12/23 04:52:33;;;;;;;1.57;1.30;;;-1.60;1.00;;;;;;4984077;28;20392;-88
2021/12/23 04:55:00;;;;;;;1.57;1.33;;;-1.40;1.00;;;;;;4983916;28;20194;-88
2021/12/23 04:57:27;;;;;;;3.13;1.80;;;-1.40;1.00;;;;;;4981898;28;20206;-88
2021/12/23 04:59:54;;;;;;;1.53;1.37;;;-1.40;45.40;;;;;;4968133;28;20202;-87
2021/12/23 05:02:21;;;;;;;1.77;1.30;;;-1.40;1.00;;;;;;4964734;28;20201;-89
2021/12/23 05:04:50;;;;;;;2.37;1.60;;;-1.30;1.00;;;;;;4966419;28;20704;-89
2021/12/23 05:07:18;;;;;;;1.63;1.27;;;-0.80;1.00;;;;;;4966766;28;20202;-90
2021/12/23 05:09:45;;;;;;;2.23;1.43;;;-0.60;1.00;;;;;;4966952;28;20276;-88
2021/12/23 05:12:12;;;;;;;2.07;1.40;;;-0.40;99.90;;;;;;4965138;28;20668;-88
2021/12/23 05:14:39;;;;;;;2.60;1.20;;;-0.30;99.90;;;;;;4966937;28;20233;-87
2021/12/23 05:17:06;;;;;;;3.80;1.50;;;-0.20;99.90;;;;;;4965954;28;20221;-87
2021/12/23 05:19:32;;;;;;;1.07;0.97;;;-0.20;99.90;;;;;;4966911;28;20233;-88
2021/12/23 05:21:59;;;;;;;1.90;1.60;;;0.00;99.90;;;;;;4982553;28;20716;-88
2021/12/23 05:24:27;;;;;;;3.77;1.20;;;0.00;99.90;;;;;;4966612;28;20645;-88
2021/12/23 05:26:54;;;;;;;1.67;1.30;;;0.00;99.90;;;;;;4982805;28;20198;-88
2021/12/23 05:29:21;;;;;;;3.13;1.70;;;-0.10;1.00;;;;;;4982254;28;20186;-88
2021/12/23 05:31:48;;;;;;;1.80;1.40;;;-0.20;1.00;;;;;;4957052;28;20245;-87
2021/12/23 05:34:15;;;;;;;2.80;1.50;;;-0.40;1.00;;;;;;4954870;28;20256;-87
2021/12/23 05:36:42;;;;;;;1.77;1.30;;;-0.50;1.00;;;;;;4964608;28;20224;-88
2021/12/23 05:39:09;;;;;;;2.27;1.73;;;-0.50;1.00;;;;;;4965426;28;20236;-88
2021/12/23 05:41:36;;;;;;;2.50;1.70;;;-0.50;1.00;;;;;;4964250;28;20201;-87
2021/12/23 05:44:03;;;;;;;2.00;1.50;;;-0.20;1.00;;;;;;4966363;28;20201;-87
2021/12/23 05:46:30;;;;;;;2.43;1.50;;;0.00;1.00;;;;;;4996393;28;20558;-86
2021/12/23 05:48:58;;;;;;;2.07;1.50;;;-0.10;1.00;;;;;;4965161;28;20606;-88
2021/12/23 05:51:24;;;;;;;1.47;1.27;;;-0.10;1.00;;;;;;4981927;28;20194;-86
2021/12/23 05:53:56;;;;;;;1.87;1.43;;;-0.20;1.00;;;;;;4965553;28;20698;-87
2021/12/23 05:56:28;;;;;;;5.00;2.00;;;-0.20;1.00;;;;;;4965424;28;20178;-87
2021/12/23 05:58:55;;;;;;;2.23;1.50;;;-0.20;1.00;;;;;;4966107;28;20687;-87
2021/12/23 06:01:23;;;;;;;2.53;1.40;;;-0.20;1.00;;;;;;4965098;28;20185;-87
2021/12/23 06:03:50;;;;;;;2.70;1.80;;;-0.20;1.00;;;;;;4965618;28;20186;-88
2021/12/23 06:06:18;;;;;;;2.57;1.73;;;-0.20;1.00;;;;;;4960946;28;20604;-88
2021/12/23 06:08:45;;;;;;;2.23;1.43;;;-0.20;1.00;;;;;;4964322;28;20197;-88
2021/12/23 06:11:12;;;;;;;4.03;2.20;;;-0.20;1.00;;;;;;4964630;28;20198;-87
2021/12/23 06:13:39;;;;;;;1.77;1.50;;;-0.10;1.00;;;;;;4963090;28;20194;-89
2021/12/23 06:16:08;;;;;;;2.40;1.53;;;0.00;1.00;;;;;;4975316;28;20191;-90
2021/12/23 06:18:35;;;;;;;2.63;1.70;;;0.10;1.00;;;;;;4976445;28;20215;-89
2021/12/23 06:21:03;;;;;;;2.00;1.43;;;0.30;1.00;;;;;;4981066;28;20194;-88
2021/12/23 06:23:31;;;;;;;2.60;2.00;;;0.50;1.00;;;;;;4946287;28;20197;-88
2021/12/23 06:25:58;;;;;;;2.10;1.57;;;0.50;1.00;;;;;;4962080;28;20187;-90
2021/12/23 06:28:25;;;;;;;2.50;1.50;;;0.60;1.00;;;;;;4962129;28;20232;-90
2021/12/23 06:30:55;;;;;;;2.87;1.57;;;0.60;1.00;;;;;;4992999;28;20180;-90
2021/12/23 06:33:23;;;;;;;1.93;1.50;;;0.70;1.00;;;;;;4981487;28;20208;-90
2021/12/23 06:35:50;;;;;;;2.50;1.50;;;0.70;1.00;;;;;;4966981;28;20205;-88
2021/12/23 06:38:17;;;;;;;2.30;1.60;;;0.60;99.90;;;;;;4966644;28;20653;-90
2021/12/23 06:40:45;;;;;;;2.73;1.50;;;0.60;1.00;;;;;;4982303;28;20201;-89
2021/12/23 06:43:12;;;;;;;2.90;1.90;;;0.40;1.00;;;;;;4975705;28;20216;-89
2021/12/23 06:45:39;;;;;;;2.63;1.70;;;0.30;1.00;;;;;;4966592;28;20217;-89
2021/12/23 06:48:06;;;;;;;2.20;1.80;;;0.10;1.00;;;;;;4982528;28;20572;-89
2021/12/23 06:50:33;;;;;;;2.53;1.60;;;-0.10;1.00;;;;;;4951415;28;20280;-90
2021/12/23 06:53:00;;;;;;;3.37;2.10;;;-0.30;83.00;;;;;;4965871;28;20201;-89
2021/12/23 06:55:28;;;;;;;2.80;1.60;;;-0.50;99.90;;;;;;4966415;28;20240;-89
2021/12/23 06:57:56;;;;;;;3.47;1.80;;;-0.60;99.90;;;;;;4964853;28;20692;-89
2021/12/23 07:00:28;;;;;;;3.07;1.50;;;-0.80;99.90;;;;;;4965636;28;20182;-87
2021/12/23 07:02:56;;;;;;;2.57;1.77;;;-0.90;99.90;;;;;;4962768;28;20190;-87
2021/12/23 07:05:25;;;;;;;5.23;3.30;;;-1.00;99.90;;;;;;4967911;28;20222;-86
2021/12/23 07:07:55;;;;;;;2.63;1.90;;;-1.00;99.90;;;;;;4964183;28;20257;-87
2021/12/23 07:10:26;;;;;;;4.93;3.20;;;-1.00;99.90;;;;;;4965549;28;20182;-85
2021/12/23 07:12:55;;;;;;;3.07;2.00;;;-0.80;99.90;;;;;;4980961;28;20205;-88
2021/12/23 07:15:24;;;;;;;3.90;1.97;;;-0.60;99.90;;;;;;4963484;28;20197;-88
2021/12/23 07:17:53;;;;;;;2.20;1.77;;;-0.40;99.90;;;;;;4963357;28;20296;-88
2021/12/23 07:20:22;;;;;;;8.20;4.83;;;-0.20;99.90;;;;;;4965051;28;20224;-87
2021/12/23 07:22:49;;;;;;;2.97;2.47;;;0.00;99.90;;;;;;4953757;28;20689;-90
2021/12/23 07:25:16;;;;;;;6.07;2.73;;;0.20;45.70;;;;;;4964095;28;20190;-88
2021/12/23 07:27:44;;;;;;;9.03;5.27;;;0.40;99.90;;;;;;4963838;28;20276;-88
2021/12/23 07:30:15;;;;;;;10.83;5.70;;;0.60;99.90;;;;;;4961389;28;20197;-88
2021/12/23 07:32:55;;;;;;;5.40;3.03;;;0.80;20.40;;;;;;4963770;28;20265;-89
2021/12/23 07:35:31;;;;;;;9.03;4.80;;;0.80;1.00;;;;;;4981851;28;20201;-89
2021/12/23 07:38:08;;;;;;;6.07;2.90;;;0.80;45.90;;;;;;4959054;28;20210;-90
2021/12/23 07:40:44;;;;;;;7.13;3.70;;;0.80;2.20;;;;;;4991536;28;20277;-88
2021/12/23 07:45:57;;;;;;;3.53;2.50;;;0.90;33.20;;;;;;5012132;28;20296;-90
2021/12/23 07:48:24;;;;;;;4.17;2.83;;;1.00;1.00;;;;;;4987519;28;20200;-89
2021/12/23 07:50:54;;;;;;;5.73;3.27;;;1.20;1.00;;;;;;4988196;28;20212;-89
2021/12/23 07:53:21;;;;;;;4.37;2.50;;;1.40;1.00;;;;;;4987254;28;20255;-89
2021/12/23 07:55:52;;;;;;;5.23;3.10;;;1.60;1.00;;;;;;4987494;28;20201;-89
2021/12/23 07:58:19;;;;;;;3.27;2.30;;;1.70;1.00;;;;;;4986577;28;20205;-89
2021/12/23 08:00:48;;;;;;;2.57;2.37;;;1.90;1.00;;;;;;4987018;28;20200;-88
2021/12/23 08:03:18;;;;;;;3.53;2.30;;;1.90;1.00;;;;;;4986389;28;20204;-90
2021/12/23 08:05:48;;;;;;;2.90;2.30;;;2.20;1.00;;;;;;4985243;28;20181;-89
2021/12/23 08:08:17;;;;;;;8.33;3.83;;;2.30;1.00;;;;;;4983600;28;20201;-89
2021/12/23 08:10:50;;;;;;;5.47;2.60;;;2.30;1.00;;;;;;4982865;28;20197;-87
2021/12/23 08:13:19;;;;;;;3.17;2.23;;;2.40;1.00;;;;;;4995208;28;20201;-89
2021/12/23 08:15:52;;;;;;;5.87;2.63;;;2.50;1.00;;;;;;4982090;28;20673;-89
2021/12/23 08:18:51;;;;;;;5.27;3.23;;;2.50;1.00;;;;;;4985525;28;20205;-90
2021/12/23 08:21:44;;;;;;;;;;;;;;;;;;;;;
2021/12/23 08:24:54;;;;;;;4.83;3.13;;;2.50;1.00;;;;;;4998209;28;20563;-91
2021/12/23 08:30:40;;;;;;;71.27;33.33;;;2.50;99.90;;;;;;4999709;28;20207;-90
2021/12/23 08:33:18;;;;;;;13.20;8.90;;;2.50;99.90;;;;;;4996606;28;20201;-91
2021/12/23 08:35:53;;;;;;;7.60;5.23;;;2.50;1.00;;;;;;4984852;28;20217;-92
2021/12/23 08:39:00;;;;;;;4.23;2.60;;;2.50;1.00;;;;;;4983155;28;20245;-91
2021/12/23 08:42:31;;;;;;;3.90;2.50;;;2.60;1.00;;;;;;5004788;28;20224;-92
2021/12/23 08:45:25;;;;;;;4.80;2.00;;;2.60;99.90;;;;;;4986967;28;20189;-92
2021/12/23 08:48:27;;;;;;;4.10;2.57;;;2.60;1.00;;;;;;4989540;28;20397;-90
2021/12/23 08:51:33;;;;;;;3.10;2.33;;;2.70;1.00;;;;;;4979728;28;20213;-92
2021/12/23 08:54:01;;;;;;;5.53;2.60;;;2.70;1.00;;;;;;4987013;28;20201;-92
2021/12/23 08:56:34;;;;;;;3.07;2.20;;;2.60;1.00;;;;;;4986574;28;20620;-90
2021/12/23 08:59:02;;;;;;;3.90;2.70;;;2.60;1.00;;;;;;4985991;28;20213;-91
2021/12/23 09:01:30;;;;;;;3.50;2.23;;;2.60;1.00;;;;;;4985159;28;20190;-90
2021/12/23 09:03:57;;;;;;;3.50;2.50;;;2.50;1.00;;;;;;4983713;28;20181;-90
2021/12/23 09:06:25;;;;;;;5.10;2.73;;;2.40;48.50;;;;;;4982168;28;20193;-90
2021/12/23 09:08:54;;;;;;;3.80;2.50;;;2.30;46.40;;;;;;4997188;28;20196;-91
2021/12/23 09:11:22;;;;;;;3.93;2.60;;;2.30;94.20;;;;;;4982835;28;20615;-89
2021/12/23 09:13:50;;;;;;;3.80;2.60;;;2.30;47.50;;;;;;4987719;28;20644;-90
2021/12/23 09:16:18;;;;;;;3.73;2.57;;;2.30;70.70;;;;;;4985159;28;20197;-90
2021/12/23 09:18:52;;;;;;;4.60;2.43;;;2.30;99.90;;;;;;4996704;28;20237;-89
2021/12/23 09:21:22;;;;;;;4.67;2.70;;;2.30;99.90;;;;;;4995898;28;20197;-90
2021/12/23 09:24:04;;;;;;;5.50;2.40;;;2.30;99.90;;;;;;4978845;28;20193;-90
2021/12/23 09:26:36;;;;;;;5.77;2.50;;;2.30;99.90;;;;;;4980830;28;20217;-90
2021/12/23 09:32:38;;;;;;;4.23;3.03;;;2.30;99.90;;;;;;4979175;28;20192;-86
2021/12/23 09:34:45;;;;;;;3.33;2.60;;;2.30;99.90;;;;;;4998323;28;20227;-90
2021/12/23 09:37:13;;;;;;;2.93;2.57;;;2.40;99.90;;;;;;4963720;28;20280;-89
2021/12/23 09:39:40;;;;;;;4.00;2.60;;;2.50;99.90;;;;;;4970948;28;20182;-89
2021/12/23 09:42:08;;;;;;;5.00;3.37;;;2.60;99.90;;;;;;4983111;28;20218;-90
2021/12/23 09:44:36;;;;;;;5.77;4.73;;;2.60;99.90;;;;;;4999899;28;20689;-90
2021/12/23 09:47:14;;;;;;;3.40;2.80;;;2.80;99.90;;;;;;4983496;28;20197;-91
2021/12/23 09:49:47;;;;;;;3.67;2.30;;;3.00;99.90;;;;;;4975590;28;20220;-90
2021/12/23 09:52:14;;;;;;;4.77;3.57;;;3.00;99.90;;;;;;4978113;28;20538;-90
2021/12/23 09:54:45;;;;;;;3.30;2.60;;;3.10;99.90;;;;;;4983155;28;20205;-90
2021/12/23 09:57:18;;;;;;;12.97;8.93;;;3.20;99.90;;;;;;4982582;28;20201;-89
2021/12/23 09:59:53;;;;;;;18.67;13.50;;;3.30;99.90;;;;;;4982496;28;20204;-90
2021/12/23 10:02:25;;;;;;;4.50;3.37;;;3.50;65.00;;;;;;4976217;28;20206;-89
2021/12/23 10:04:53;;;;;;;8.97;5.60;;;3.60;46.00;;;;;;4965921;28;20260;-89
2021/12/23 10:07:20;;;;;;;5.73;4.10;;;3.80;29.50;;;;;;4981885;28;20205;-89
2021/12/23 10:38:21;;;;;;;7.43;5.70;;;4.00;99.90;;;;;;4965366;28;20212;-89
2021/12/23 10:40:53;;;;;;;8.73;5.53;;;4.10;98.00;;;;;;4985671;28;20181;-86
2021/12/23 10:43:29;;;;;;;7.30;4.63;;;4.30;99.90;;;;;;5015599;28;20220;-86
2021/12/23 10:46:14;;;;;;;6.50;4.97;;;4.50;1.00;;;;;;4981902;28;20193;-87
2021/12/23 10:52:08;;;;;;;7.37;3.50;;;4.80;1.00;;;;;;4997512;28;20193;-87
2021/12/23 11:00:30;;;;;;;6.47;4.57;;;4.90;1.00;;;;;;5014621;28;20236;-87
2021/12/23 11:06:03;;;;;;;6.90;4.53;;;4.80;1.00;;;;;;4992689;28;20205;-86
2021/12/23 11:08:51;;;;;;;6.10;4.47;;;4.70;1.00;;;;;;4966775;28;20236;-85
2021/12/23 11:28:58;;;;;;;5.90;3.97;;;4.70;99.90;;;;;;5014543;28;20189;-87
2021/12/23 11:41:53;;;;;;;4.67;2.97;;;4.90;1.00;;;;;;4996222;28;20740;-85
2021/12/23 11:44:21;;;;;;;10.03;6.13;;;5.00;1.00;;;;;;4980828;28;20276;-90
2021/12/23 11:46:53;;;;;;;8.27;6.40;;;5.10;1.00;;;;;;4997002;28;20295;-85
2021/12/23 11:49:21;;;;;;;3.50;2.70;;;5.40;1.00;;;;;;4980472;28;20189;-87
2021/12/23 11:54:22;;;;;;;4.73;3.60;;;5.80;99.90;;;;;;4992005;28;20205;-88
2021/12/23 11:56:53;;;;;;;6.07;3.97;;;6.10;99.90;;;;;;4978718;28;20205;-90
2021/12/23 11:59:26;;;;;;;4.07;2.60;;;6.40;99.90;;;;;;4973654;28;20660;-89
2021/12/23 12:01:56;;;;;;;3.47;2.50;;;6.70;99.90;;;;;;4979758;28;20671;-88
2021/12/23 12:04:28;;;;;;;3.50;2.37;;;6.90;99.90;;;;;;4980377;28;20594;-87
2021/12/23 12:06:58;;;;;;;3.20;1.97;;;7.10;99.90;;;;;;4980380;28;20259;-88
2021/12/23 12:09:28;;;;;;;3.10;2.63;;;7.10;99.90;;;;;;4997039;28;20292;-89
2021/12/23 12:11:58;;;;;;;6.30;2.93;;;7.20;99.90;;;;;;4983437;28;20193;-91
2021/12/23 12:14:34;;;;;;;3.67;2.10;;;7.30;99.90;;;;;;4981680;28;20217;-88
2021/12/23 12:21:59;;;;;;;6.77;2.90;;;7.40;99.90;;;;;;4809150;29;20205;-90
2021/12/23 12:24:58;;;;;;;3.23;2.47;;;7.50;99.90;;;;;;4817811;28;20211;-90
2021/12/23 12:27:27;;;;;;;18.50;8.40;;;7.70;99.90;;;;;;4981389;28;20922;-88
2021/12/23 12:30:18;;;;;;;4.87;1.57;;;7.80;99.90;;;;;;4971717;28;20185;-88
2021/12/23 12:32:45;;;;;;;2.53;1.63;;;7.90;99.90;;;;;;4968804;28;20742;-89
2021/12/23 12:35:19;;;;;;;2.80;1.93;;;8.00;99.90;;;;;;5000371;28;20269;-87
2021/12/23 12:37:50;;;;;;;6.13;1.87;;;8.00;99.90;;;;;;4984238;28;20308;-89
2021/12/23 12:40:54;;;;;;;2.77;1.70;;;8.10;99.90;;;;;;4975697;28;20663;-94
2021/12/23 12:44:04;;;;;;;2.30;1.53;;;8.10;99.90;;;;;;4998777;28;20549;-92
2021/12/23 12:46:43;;;;;;;3.95;1.48;;;8.10;99.90;;;;;;4992063;28;20567;-89
2021/12/23 12:49:49;;;;;;;2.47;1.80;;;8.10;99.90;;;;;;4990777;28;20655;-92
2021/12/23 12:52:39;;;;;;;2.83;1.23;;;8.10;1.00;;;;;;4984178;28;20197;-90
2021/12/23 12:55:38;;;;;;;2.70;1.60;;;8.00;1.00;;;;;;5000051;28;20903;-93
2021/12/23 12:58:16;;;;;;;6.93;1.63;;;8.00;1.00;;;;;;4982920;28;20213;-90
2021/12/23 13:01:19;;;;;;;2.77;1.37;;;8.10;1.00;;;;;;4983170;28;20559;-91
2021/12/23 13:04:05;;;;;;;3.70;1.83;;;8.10;28.50;;;;;;5005957;28;20205;-90
2021/12/23 13:07:40;;;;;;;5.03;1.90;;;8.20;99.90;;;;;;4981757;28;20195;-92
2021/12/23 13:10:49;;;;;;;4.03;1.83;;;8.20;99.90;;;;;;4974843;28;20185;-92
2021/12/23 13:13:59;;;;;;;4.03;1.83;;;8.20;99.90;;;;;;4995846;28;20224;-89
2021/12/23 13:16:29;;;;;;;1.70;1.60;;;8.10;99.90;;;;;;4995110;28;20711;-90
2021/12/23 13:19:13;;;;;;;4.43;1.80;;;8.20;99.90;;;;;;4982242;28;20256;-89
2021/12/23 13:21:47;;;;;;;5.97;1.77;;;8.20;99.90;;;;;;4998186;28;20200;-92
2021/12/23 13:24:21;;;;;;;3.78;1.60;;;8.30;99.90;;;;;;4990901;28;20271;-91
2021/12/23 13:26:56;;;;;;;2.85;1.52;;;8.30;99.90;;;;;;4999530;28;20184;-92
2021/12/23 13:29:29;;;;;;;7.97;2.00;;;8.40;99.90;;;;;;4972788;28;20268;-90
2021/12/23 13:32:02;;;;;;;4.83;1.90;;;8.30;99.90;;;;;;4979802;28;20655;-89
2021/12/23 13:34:33;;;;;;;3.43;1.50;;;8.30;99.90;;;;;;4981431;28;20220;-92
2021/12/23 13:37:08;;;;;;;4.22;2.25;;;8.20;99.90;;;;;;4993001;28;20233;-88
2021/12/23 13:39:40;;;;;;;3.67;1.83;;;8.20;99.90;;;;;;4978801;28;20212;-87
2021/12/23 13:42:13;;;;;;;2.50;1.70;;;8.20;99.90;;;;;;4982478;28;20212;-92
2021/12/23 13:44:47;;;;;;;2.15;1.70;;;8.20;99.90;;;;;;4979284;28;20548;-89
2021/12/23 13:47:26;;;;;;;4.67;2.70;;;8.20;99.90;;;;;;4979711;28;20188;-87
2021/12/23 13:49:57;;;;;;;2.42;1.50;;;8.20;99.90;;;;;;4978763;28;20189;-90
2021/12/23 13:52:34;;;;;;;2.20;1.60;;;8.20;99.90;;;;;;4982020;28;20248;-87
2021/12/23 13:55:11;;;;;;;2.42;1.50;;;8.10;1.00;;;;;;4973789;28;20213;-92
2021/12/23 13:57:49;;;;;;;4.57;2.03;;;8.10;1.00;;;;;;4975185;28;20197;-89
2021/12/23 14:00:21;;;;;;;2.83;1.80;;;8.10;1.00;;;;;;4981503;28;20632;-90
2021/12/23 14:02:53;;;;;;;2.33;1.70;;;8.10;1.00;;;;;;4982032;28;20646;-89
2021/12/23 14:05:24;;;;;;;4.33;2.00;;;8.10;1.00;;;;;;4966965;28;20239;-92
2021/12/23 14:07:54;;;;;;;3.87;1.93;;;8.00;99.90;;;;;;4981988;28;20247;-90
2021/12/23 14:10:29;;;;;;;3.93;1.60;;;8.10;99.90;;;;;;4981421;28;20216;-93
2021/12/23 14:13:10;;;;;;;4.70;1.93;;;8.10;99.90;;;;;;4982705;28;20259;-91
2021/12/23 14:15:45;;;;;;;5.43;2.03;;;8.00;99.90;;;;;;4999314;28;20198;-89
2021/12/23 14:18:26;;;;;;;7.07;1.93;;;8.00;1.00;;;;;;4984209;28;20189;-86
2021/12/23 14:23:32;;;;;;;3.17;1.70;;;8.00;99.90;;;;;;4995463;28;20189;-89
2021/12/23 14:26:02;;;;;;;2.80;2.00;;;8.00;99.90;;;;;;4998623;28;20212;-87
2021/12/23 14:28:43;;;;;;;4.28;2.00;;;8.10;99.90;;;;;;4982845;28;20189;-89
2021/12/23 14:31:15;;;;;;;5.10;1.90;;;8.00;99.90;;;;;;4998168;28;20201;-88
2021/12/23 14:33:52;;;;;;;5.47;2.30;;;8.00;99.90;;;;;;4982388;28;20189;-87
2021/12/23 14:36:44;;;;;;;3.93;2.00;;;8.00;99.90;;;;;;4984989;28;20201;-86
2021/12/23 14:39:22;;;;;;;6.90;2.00;;;8.00;99.90;;;;;;4983714;28;20205;-91
2021/12/23 14:41:58;;;;;;;5.93;1.90;;;8.00;99.90;;;;;;4982223;28;20213;-87
2021/12/23 14:44:28;;;;;;;2.67;1.90;;;8.00;99.90;;;;;;4978418;28;20196;-86
2021/12/23 14:50:13;;;;;;;4.63;2.10;;;7.80;99.90;;;;;;4965317;28;20576;-84
2021/12/23 14:52:56;;;;;;;3.03;2.07;;;7.80;99.90;;;;;;4978108;28;20212;-90
2021/12/23 14:55:25;;;;;;;4.53;2.47;;;7.70;99.90;;;;;;4984736;28;20245;-88
2021/12/23 14:58:01;;;;;;;3.87;2.50;;;7.60;99.90;;;;;;4962539;28;20201;-87